Time;durP1;ratioP1;P1;durP2;ratioP2;P2;SDS_P1;SDS_P2;PMS_P1;PMS_P2;Temp;Humidity;BMP_temperature;BMP_pressure;BME280_temperature;BME280_humidity;BME280_pressure;Samples;Min_cycle;Max_cycle;Signal;HPM_P1;HPM_P2
2022/11/10 00:00:57;;;;;;;128.25;118.82;;;;;;;13.93;71.75;102090.00;5017005;27;102536;-53
2022/11/10 00:03:27;;;;;;;124.18;115.05;;;;;;;13.91;71.65;102078.47;5022470;27;102265;-53
2022/11/10 00:05:54;;;;;;;126.07;117.00;;;;;;;13.93;71.58;102079.03;5031047;27;102291;-53
2022/11/10 00:08:21;;;;;;;127.78;118.55;;;;;;;13.92;71.58;102078.22;5023908;28;103874;-53
2022/11/10 00:10:57;;;;;;;127.35;118.13;;;;;;;13.93;71.83;102073.56;5027825;27;102456;-53
2022/11/10 00:13:26;;;;;;;127.72;118.50;;;;;;;13.93;71.84;102079.03;5021340;27;102238;-53
2022/11/10 00:18:39;;;;;;;124.82;115.68;;;;;;;13.93;71.67;102079.03;5023717;27;104150;-54
2022/11/10 00:21:07;;;;;;;133.65;124.13;;;;;;;13.92;71.61;102089.16;5026303;27;102532;-53
2022/11/10 00:23:34;;;;;;;130.73;121.30;;;;;;;13.92;71.99;102071.94;5021140;27;102387;-53
2022/11/10 00:26:01;;;;;;;131.20;121.55;;;;;;;13.92;71.70;102070.00;5029018;27;102423;-53
2022/11/10 00:28:30;;;;;;;125.88;116.20;;;;;;;13.93;71.73;102071.66;5015864;27;103930;-54
2022/11/10 00:30:57;;;;;;;124.82;115.55;;;;;;;13.92;71.95;102072.75;5024106;27;102297;-53
2022/11/10 00:33:23;;;;;;;128.05;118.68;;;;;;;13.91;71.73;102070.25;5020430;27;102133;-53
2022/11/10 00:35:51;;;;;;;123.07;114.00;;;;;;;13.94;71.88;102069.75;5025558;27;102651;-53
2022/11/10 00:38:18;;;;;;;129.10;119.35;;;;;;;13.93;71.63;102062.63;5032990;27;104097;-53
2022/11/10 00:40:44;;;;;;;128.32;118.93;;;;;;;13.90;71.80;102068.63;5026450;27;102319;-53
2022/11/10 00:43:11;;;;;;;131.40;121.55;;;;;;;13.92;71.94;102069.19;5027251;27;102369;-54
2022/11/10 00:45:41;;;;;;;123.28;114.05;;;;;;;13.91;71.69;102065.59;5022426;27;102111;-53
2022/11/10 00:48:09;;;;;;;123.85;114.80;;;;;;;13.92;71.68;102071.94;5022424;27;103988;-53
2022/11/10 00:50:35;;;;;;;131.05;121.65;;;;;;;13.92;71.75;102066.47;5034208;27;102622;-53
2022/11/10 00:53:03;;;;;;;131.57;122.07;;;;;;;13.91;71.76;102064.78;5030191;27;102307;-53
2022/11/10 00:55:30;;;;;;;128.05;118.53;;;;;;;13.92;71.66;102069.19;5024674;27;102125;-54
2022/11/10 00:57:57;;;;;;;136.55;126.85;;;;;;;13.90;71.91;102069.44;5025433;27;104027;-53
2022/11/10 01:00:23;;;;;;;133.77;124.13;;;;;;;13.90;71.69;102068.63;5028721;27;102648;-53
2022/11/10 01:02:51;;;;;;;121.90;112.85;;;;;;;13.91;71.79;102068.34;5028345;27;102402;-53
2022/11/10 01:05:17;;;;;;;126.80;117.32;;;;;;;13.92;71.75;102061.81;5025511;27;102652;-53
2022/11/10 01:07:44;;;;;;;124.22;115.25;;;;;;;13.90;71.92;102069.44;5017116;27;103923;-54
2022/11/10 01:10:12;;;;;;;129.30;120.30;;;;;;;13.91;71.94;102064.78;5026256;27;102465;-53
2022/11/10 01:12:38;;;;;;;126.35;117.10;;;;;;;13.93;71.75;102070.84;5033051;27;102589;-52
2022/11/10 01:15:06;;;;;;;128.45;119.25;;;;;;;13.90;71.66;102069.44;5023009;27;102576;-53
2022/11/10 01:17:34;;;;;;;133.63;124.00;;;;;;;13.91;71.72;102070.25;5018238;27;103793;-53
2022/11/10 01:20:00;;;;;;;130.10;120.72;;;;;;;13.90;71.86;102069.44;5022344;27;102278;-53
2022/11/10 01:22:26;;;;;;;130.73;121.20;;;;;;;13.91;71.82;102067.53;5017468;27;102215;-53
2022/11/10 01:24:53;;;;;;;130.98;121.50;;;;;;;13.90;71.91;102060.41;5025824;27;102120;-53
2022/11/10 01:27:21;;;;;;;124.63;115.75;;;;;;;13.90;71.81;102061.22;5025549;27;103915;-53
2022/11/10 01:29:48;;;;;;;127.17;117.43;;;;;;;13.89;71.84;102064.22;5021405;28;102475;-53
2022/11/10 01:32:15;;;;;;;134.50;124.70;;;;;;;13.91;71.66;102053.84;5027337;27;102695;-53
2022/11/10 01:34:43;;;;;;;129.27;119.95;;;;;;;13.89;72.00;102067.78;5025186;27;102856;-53
2022/11/10 01:37:10;;;;;;;127.90;118.47;;;;;;;13.90;71.65;102061.22;5030226;27;103931;-53
2022/11/10 01:39:37;;;;;;;128.45;119.40;;;;;;;13.91;71.87;102064.78;5021032;27;102303;-53
2022/11/10 01:42:04;;;;;;;123.50;114.45;;;;;;;13.90;71.78;102057.66;5028565;27;102257;-53
2022/11/10 01:44:35;;;;;;;132.80;123.25;;;;;;;13.89;71.82;102059.59;5034379;27;102263;-53
2022/11/10 01:47:02;;;;;;;125.93;116.85;;;;;;;13.89;71.75;102064.22;5025487;27;104254;-53
2022/11/10 01:49:31;;;;;;;124.45;115.47;;;;;;;13.90;71.76;102063.13;5025547;27;102424;-53
2022/11/10 01:52:00;;;;;;;124.20;115.38;;;;;;;13.89;71.75;102056.84;5019910;27;102223;-53
2022/11/10 01:54:31;;;;;;;121.10;112.32;;;;;;;13.90;71.80;102060.41;5024963;27;102233;-53
2022/11/10 01:57:01;;;;;;;131.55;121.80;;;;;;;13.89;71.58;102056.03;5027470;27;103907;-54
2022/11/10 01:59:33;;;;;;;127.15;117.88;;;;;;;13.89;71.74;102058.75;5032367;27;102252;-53
2022/11/10 02:02:09;;;;;;;132.27;122.72;;;;;;;13.89;71.63;102067.78;5024603;27;102559;-53
2022/11/10 02:04:38;;;;;;;123.40;114.20;;;;;;;13.88;71.75;102070.78;5029612;27;102792;-53
2022/11/10 02:07:05;;;;;;;128.88;119.60;;;;;;;13.89;71.80;102067.78;5022673;27;104322;-53
2022/11/10 02:09:33;;;;;;;124.97;116.13;;;;;;;13.89;71.82;102067.78;5023346;27;102745;-53
2022/11/10 02:11:59;;;;;;;123.97;114.85;;;;;;;13.89;72.02;102067.78;5022810;27;102328;-53
2022/11/10 02:14:26;;;;;;;124.00;115.10;;;;;;;13.88;71.80;102071.63;5022984;27;103746;-53
2022/11/10 02:16:52;;;;;;;128.32;118.95;;;;;;;13.88;71.69;102074.38;5028050;27;104273;-53
2022/11/10 02:19:23;;;;;;;131.45;121.72;;;;;;;13.88;71.87;102076.25;5022246;27;102461;-53
2022/11/10 02:21:51;;;;;;;126.95;117.43;;;;;;;13.89;71.90;102083.38;5023572;27;102342;-53
2022/11/10 02:24:18;;;;;;;135.23;125.37;;;;;;;13.89;71.85;102080.66;5026603;27;102927;-53
2022/11/10 02:26:47;;;;;;;129.25;119.82;;;;;;;13.88;71.86;102076.25;5019621;27;103923;-53
2022/11/10 02:29:14;;;;;;;130.23;121.10;;;;;;;13.88;71.89;102070.78;5021736;27;102508;-53
2022/11/10 02:31:41;;;;;;;134.15;124.55;;;;;;;13.87;71.87;102072.69;5019120;27;103067;-53
2022/11/10 02:34:08;;;;;;;125.03;115.93;;;;;;;13.88;71.87;102070.78;5020416;27;102765;-53
2022/11/10 02:36:34;;;;;;;125.65;116.55;;;;;;;13.87;71.76;102074.59;5021501;27;104217;-53
2022/11/10 02:39:03;;;;;;;131.00;121.75;;;;;;;13.88;71.65;102079.84;5033372;27;102394;-53
2022/11/10 02:41:29;;;;;;;123.30;114.43;;;;;;;13.89;71.79;102077.91;5021430;27;102508;-53
2022/11/10 02:43:57;;;;;;;126.13;117.13;;;;;;;13.88;71.81;102082.56;5033407;27;102731;-53
2022/11/10 02:46:24;;;;;;;127.75;118.40;;;;;;;13.88;71.85;102076.25;5030847;27;103863;-53
2022/11/10 02:48:51;;;;;;;128.02;119.03;;;;;;;13.88;71.78;102087.19;5028186;27;102389;-53
2022/11/10 02:51:17;;;;;;;126.05;117.10;;;;;;;13.88;71.64;102087.19;5027783;27;102311;-53
2022/11/10 02:53:44;;;;;;;129.00;119.93;;;;;;;13.87;71.60;102083.63;5017320;27;102212;-53
2022/11/10 02:56:12;;;;;;;122.97;113.82;;;;;;;13.87;71.67;102086.38;5021356;27;104105;-53
2022/11/10 02:58:40;;;;;;;123.82;114.88;;;;;;;13.87;71.78;102089.09;5033123;27;102474;-54
2022/11/10 03:01:06;;;;;;;125.05;116.05;;;;;;;13.87;71.81;102091.84;5027449;27;102251;-53
2022/11/10 03:03:33;;;;;;;129.77;120.30;;;;;;;13.87;72.15;102096.50;5034112;27;102208;-53
2022/11/10 03:06:00;;;;;;;130.75;121.22;;;;;;;13.87;71.78;102097.31;5027114;27;104314;-53
2022/11/10 03:08:27;;;;;;;117.90;109.32;;;;;;;13.87;71.96;102096.50;5027799;27;102754;-53
2022/11/10 03:10:54;;;;;;;129.52;120.03;;;;;;;13.87;71.67;102086.38;5026447;27;102634;-53
2022/11/10 03:13:22;;;;;;;123.78;114.80;;;;;;;13.87;71.81;102080.06;5018837;27;102209;-53
2022/11/10 03:15:51;;;;;;;130.43;120.97;;;;;;;13.88;71.62;102089.94;5022710;27;103902;-53
2022/11/10 03:18:19;;;;;;;125.93;117.00;;;;;;;13.88;71.72;102092.66;5016306;27;102081;-53
2022/11/10 03:20:49;;;;;;;125.55;116.53;;;;;;;13.87;71.75;102085.56;5025064;28;102038;-53
2022/11/10 03:23:16;;;;;;;130.05;120.53;;;;;;;13.87;71.72;102082.81;5024310;27;102564;-53
2022/11/10 03:25:43;;;;;;;130.68;121.15;;;;;;;13.86;71.88;102079.25;5021418;27;104666;-53
2022/11/10 03:28:13;;;;;;;127.82;118.72;;;;;;;13.84;71.86;102075.94;5019470;27;102181;-53
2022/11/10 03:30:42;;;;;;;130.18;120.93;;;;;;;13.87;71.79;102074.59;5026003;27;102829;-53
2022/11/10 03:33:08;;;;;;;132.10;122.77;;;;;;;13.85;71.68;102082.25;5034080;27;102441;-53
2022/11/10 03:35:35;;;;;;;124.10;115.20;;;;;;;13.86;71.94;102078.44;5020436;27;103970;-53
2022/11/10 03:38:02;;;;;;;128.80;119.78;;;;;;;13.86;71.87;102072.97;5028591;27;101917;-53
2022/11/10 03:40:29;;;;;;;127.70;118.43;;;;;;;13.86;71.72;102079.25;5020148;27;102259;-53
2022/11/10 03:42:56;;;;;;;127.25;118.22;;;;;;;13.86;71.92;102078.44;5028656;27;102674;-53
2022/11/10 03:45:23;;;;;;;135.15;125.47;;;;;;;13.86;71.80;102072.97;5020257;27;103920;-54
2022/11/10 03:47:51;;;;;;;125.60;116.55;;;;;;;13.87;71.83;102074.59;5025443;27;102306;-53
2022/11/10 03:50:18;;;;;;;125.40;116.38;;;;;;;13.87;71.71;102071.88;5031195;27;102718;-53
2022/11/10 03:52:45;;;;;;;130.70;121.43;;;;;;;13.86;71.77;102076.53;5022313;27;104555;-53
2022/11/10 03:55:13;;;;;;;117.63;108.90;;;;;;;13.86;71.72;102076.53;5026392;27;103808;-53
2022/11/10 03:57:42;;;;;;;131.23;121.80;;;;;;;13.87;71.56;102085.56;5020714;27;102194;-54
2022/11/10 04:00:10;;;;;;;127.28;118.13;;;;;;;13.86;71.67;102076.53;5019886;27;102100;-54
2022/11/10 04:02:38;;;;;;;123.80;114.70;;;;;;;13.86;71.63;102072.97;5032564;27;102324;-53
2022/11/10 04:10:43;;;;;;;142.60;132.90;;;;;;;13.85;71.84;102088.56;5021472;27;103870;-53
2022/11/10 04:15:56;;;;;;;127.20;118.20;;;;;;;13.86;71.70;102089.38;5009313;28;103868;-53
2022/11/10 04:18:23;;;;;;;131.20;121.85;;;;;;;13.85;71.64;102087.75;5029676;28;101910;-53
2022/11/10 04:20:53;;;;;;;130.13;121.10;;;;;;;13.84;71.79;102088.81;5023916;27;102240;-53
2022/11/10 04:23:27;;;;;;;120.95;111.85;;;;;;;13.84;71.90;102086.06;5026740;27;102347;-53
2022/11/10 04:28:45;;;;;;;127.28;118.35;;;;;;;13.85;71.69;102090.47;5023138;27;101983;-53
2022/11/10 04:31:12;;;;;;;127.13;118.13;;;;;;;13.86;71.75;102083.91;5025092;28;102843;-53
2022/11/10 04:33:40;;;;;;;124.90;116.07;;;;;;;13.85;71.76;102087.75;5024180;28;102247;-53
2022/11/10 04:36:09;;;;;;;126.13;117.25;;;;;;;13.84;71.66;102091.53;5025501;27;104931;-53
2022/11/10 04:38:36;;;;;;;124.90;116.18;;;;;;;13.85;71.71;102093.22;5024313;28;104742;-53
2022/11/10 04:41:03;;;;;;;128.48;119.38;;;;;;;13.85;71.87;102093.22;5021681;28;102394;-53
2022/11/10 04:43:30;;;;;;;124.70;115.78;;;;;;;13.85;71.82;102090.47;5028574;27;102450;-53
2022/11/10 04:45:57;;;;;;;131.32;121.93;;;;;;;13.85;71.63;102087.75;5021834;28;103950;-53
2022/11/10 04:48:25;;;;;;;126.53;117.53;;;;;;;13.84;71.91;102094.28;5026702;27;102338;-53
2022/11/10 04:50:51;;;;;;;118.70;110.47;;;;;;;13.86;71.74;102092.13;5029049;28;102426;-53
2022/11/10 04:53:20;;;;;;;121.18;112.63;;;;;;;13.85;71.80;102098.69;5032083;28;102316;-53
2022/11/10 04:55:47;;;;;;;123.97;115.38;;;;;;;13.85;71.66;102095.94;5024246;28;104062;-53
2022/11/10 04:58:14;;;;;;;131.20;122.18;;;;;;;13.84;72.00;102108.78;5019503;28;102756;-53
2022/11/10 05:00:41;;;;;;;122.45;113.80;;;;;;;13.83;71.75;102109.88;5029708;28;102314;-53
2022/11/10 05:03:09;;;;;;;129.43;120.47;;;;;;;13.84;71.94;102108.78;5035861;27;102417;-53
2022/11/10 05:05:36;;;;;;;125.47;116.78;;;;;;;13.84;72.10;102113.44;5026433;27;103983;-53
2022/11/10 05:08:03;;;;;;;128.65;119.82;;;;;;;13.84;71.91;102118.91;5026612;28;101922;-53
2022/11/10 05:10:32;;;;;;;123.50;114.78;;;;;;;13.85;71.86;102115.94;5023702;28;102314;-53
2022/11/10 05:13:03;;;;;;;122.80;114.13;;;;;;;13.85;71.77;102115.94;5046142;27;102291;-54
2022/11/10 05:15:30;;;;;;;129.93;120.93;;;;;;;13.85;71.77;102118.66;5037444;27;103877;-54
2022/11/10 05:17:57;;;;;;;124.15;115.22;;;;;;;13.85;71.80;102126.06;5047880;27;102316;-53
2022/11/10 05:20:25;;;;;;;117.85;109.32;;;;;;;13.84;71.78;102121.63;5040875;27;102158;-53
2022/11/10 05:25:41;;;;;;;125.28;116.38;;;;;;;13.83;71.87;102123.56;5030093;27;103978;-53
2022/11/10 05:28:10;;;;;;;123.28;114.72;;;;;;;13.84;72.00;102125.19;5021693;27;102761;-53
2022/11/10 05:30:38;;;;;;;124.65;115.72;;;;;;;13.85;71.69;102137.00;5022114;28;102681;-53
2022/11/10 05:33:05;;;;;;;127.45;118.63;;;;;;;13.84;71.61;102135.31;5022021;28;102145;-53
2022/11/10 05:35:32;;;;;;;122.22;113.93;;;;;;;13.85;71.81;102139.72;5033812;27;103870;-53
2022/11/10 05:37:58;;;;;;;124.50;115.90;;;;;;;13.85;71.83;102137.00;5032738;27;102949;-53
2022/11/10 05:40:25;;;;;;;125.03;116.32;;;;;;;13.84;71.86;102138.06;5033047;27;102308;-53
2022/11/10 05:42:53;;;;;;;127.28;118.47;;;;;;;13.84;71.75;102141.63;5030258;27;101981;-53
2022/11/10 05:45:20;;;;;;;130.77;121.70;;;;;;;13.86;71.85;102144.09;5030594;27;104050;-53
2022/11/10 05:47:47;;;;;;;120.95;112.55;;;;;;;13.86;71.86;102155.88;5019504;27;102067;-53
2022/11/10 05:50:15;;;;;;;119.63;111.28;;;;;;;13.86;71.76;102160.53;5021770;28;102435;-53
2022/11/10 05:52:43;;;;;;;124.05;115.25;;;;;;;13.87;71.92;102171.22;5023153;28;103004;-53
2022/11/10 05:55:11;;;;;;;120.95;112.47;;;;;;;13.86;71.93;102168.75;5018910;27;103830;-53
2022/11/10 05:57:38;;;;;;;129.07;120.13;;;;;;;13.86;71.88;102166.00;5031749;27;102518;-53
2022/11/10 06:00:07;;;;;;;124.03;115.25;;;;;;;13.86;72.16;102177.78;5021952;27;102214;-53
2022/11/10 06:02:34;;;;;;;122.47;113.88;;;;;;;13.85;71.88;102170.66;5023242;27;102226;-53
2022/11/10 06:05:01;;;;;;;123.95;115.20;;;;;;;13.87;71.91;102173.94;5026056;27;103955;-54
2022/11/10 06:07:27;;;;;;;122.68;114.20;;;;;;;13.85;72.32;102162.44;5020929;27;102759;-53
2022/11/10 06:09:54;;;;;;;125.75;117.05;;;;;;;13.87;71.86;102173.94;5020954;28;102348;-53
2022/11/10 06:12:20;;;;;;;120.22;111.75;;;;;;;13.86;71.87;102174.22;5030211;27;102977;-53
2022/11/10 06:14:47;;;;;;;124.57;116.10;;;;;;;13.88;72.00;102174.75;5025218;27;103862;-53
2022/11/10 06:17:15;;;;;;;125.40;116.82;;;;;;;13.87;72.04;102167.66;5032066;27;102125;-53
2022/11/10 06:19:42;;;;;;;116.97;108.65;;;;;;;13.88;72.03;102174.75;5022969;27;104725;-53
2022/11/10 06:22:09;;;;;;;117.28;109.18;;;;;;;13.87;71.84;102173.13;5023148;28;102493;-53
2022/11/10 06:24:36;;;;;;;123.05;114.50;;;;;;;13.89;72.09;102176.44;5023682;27;103907;-53
2022/11/10 06:27:02;;;;;;;123.93;115.43;;;;;;;13.88;72.08;102166.56;5029541;27;102098;-53
2022/11/10 06:29:29;;;;;;;122.47;114.00;;;;;;;13.89;72.29;102176.44;5045110;27;102617;-54
2022/11/10 06:31:56;;;;;;;125.75;117.07;;;;;;;13.88;71.77;102166.56;5053409;27;104851;-53
2022/11/10 06:34:24;;;;;;;124.53;115.90;;;;;;;13.88;72.21;102172.03;5048524;27;103917;-53
2022/11/10 06:36:50;;;;;;;126.82;118.20;;;;;;;13.88;72.37;102181.09;5040257;27;102483;-54
2022/11/10 06:39:17;;;;;;;120.88;112.80;;;;;;;13.87;72.38;102178.59;5045367;27;102180;-53
2022/11/10 06:41:44;;;;;;;123.47;115.03;;;;;;;13.90;72.11;102189.03;5043910;27;102862;-53
2022/11/10 06:44:11;;;;;;;121.13;112.88;;;;;;;13.89;72.31;102182.72;5026646;27;103914;-53
2022/11/10 06:46:38;;;;;;;118.65;110.43;;;;;;;13.88;72.33;102180.25;5015422;27;102511;-54
2022/11/10 06:49:04;;;;;;;121.57;113.38;;;;;;;13.89;72.10;102184.66;5020625;27;102430;-54
2022/11/10 06:51:32;;;;;;;122.15;113.85;;;;;;;13.88;72.53;102182.97;5027635;27;102685;-53
2022/11/10 06:53:59;;;;;;;119.18;110.85;;;;;;;13.89;72.52;102181.91;5022279;27;103995;-54
2022/11/10 06:56:25;;;;;;;116.45;108.53;;;;;;;13.89;72.57;102179.19;5022701;27;102347;-53
2022/11/10 06:58:52;;;;;;;120.57;112.53;;;;;;;13.88;72.35;102180.25;5017900;27;102272;-54
2022/11/10 07:01:20;;;;;;;118.50;110.63;;;;;;;13.87;72.29;102178.59;5040467;27;102670;-53
2022/11/10 07:03:46;;;;;;;119.00;111.28;;;;;;;13.89;72.44;102176.44;5029287;27;103954;-54
2022/11/10 07:06:13;;;;;;;119.22;111.43;;;;;;;13.90;72.30;102186.28;5029020;27;102541;-54
2022/11/10 07:08:41;;;;;;;119.43;111.43;;;;;;;13.90;72.29;102175.34;5029718;27;102255;-53
2022/11/10 07:11:09;;;;;;;110.90;103.55;;;;;;;13.90;72.18;102194.50;5025279;28;102332;-54
2022/11/10 07:13:35;;;;;;;115.50;108.10;;;;;;;13.92;72.30;102189.59;5020647;27;103854;-53
2022/11/10 07:16:03;;;;;;;112.38;105.00;;;;;;;13.90;72.16;102189.03;5018565;28;102201;-54
2022/11/10 07:18:30;;;;;;;111.80;104.50;;;;;;;13.91;71.95;102190.69;5030965;27;102472;-53
2022/11/10 07:20:56;;;;;;;111.10;103.78;;;;;;;13.89;72.33;102181.91;5019220;27;102403;-53
2022/11/10 07:23:23;;;;;;;115.80;108.45;;;;;;;13.87;72.04;102190.38;5024511;27;104222;-54
2022/11/10 07:25:51;;;;;;;112.43;105.13;;;;;;;13.88;72.48;102182.97;5027592;28;102575;-54
2022/11/10 07:28:17;;;;;;;108.40;101.20;;;;;;;13.85;72.24;102176.13;5026961;27;102419;-54
2022/11/10 07:30:46;;;;;;;113.97;106.70;;;;;;;13.88;72.00;102182.97;5029027;27;102816;-54
2022/11/10 07:33:14;;;;;;;110.78;103.70;;;;;;;13.86;72.08;102182.41;5017560;27;104730;-54
2022/11/10 07:35:40;;;;;;;106.07;99.43;;;;;;;13.86;72.21;102177.78;5021625;27;102132;-54
2022/11/10 07:38:09;;;;;;;106.97;100.18;;;;;;;13.87;72.12;102184.06;5025921;27;102220;-54
2022/11/10 07:40:36;;;;;;;102.78;96.32;;;;;;;13.88;72.02;102188.44;5032446;27;102546;-54
2022/11/10 07:43:05;;;;;;;101.60;95.07;;;;;;;13.88;72.26;102192.03;5022757;27;104305;-54
2022/11/10 07:45:32;;;;;;;108.75;102.05;;;;;;;13.85;72.08;102189.81;5032341;27;102573;-54
2022/11/10 07:48:00;;;;;;;109.07;102.30;;;;;;;13.87;72.31;102195.84;5027332;27;102534;-54
2022/11/10 07:50:27;;;;;;;107.85;101.20;;;;;;;13.85;72.46;102186.25;5029670;27;102535;-54
2022/11/10 07:53:02;;;;;;;108.00;101.30;;;;;;;13.88;72.29;102185.72;5026815;27;103841;-54
2022/11/10 07:55:28;;;;;;;112.03;105.25;;;;;;;13.89;71.96;102190.94;5021527;27;102340;-53
2022/11/10 07:57:56;;;;;;;111.85;104.88;;;;;;;13.89;72.24;102193.69;5019563;27;102340;-54
2022/11/10 08:00:24;;;;;;;104.22;97.63;;;;;;;13.90;71.97;102194.50;5026807;27;103126;-53
2022/11/10 08:02:51;;;;;;;103.68;97.45;;;;;;;13.90;71.98;102199.97;5022335;27;104120;-53
2022/11/10 11:18:58;;;;;;;119.95;112.70;;;;;;;13.65;68.32;102170.44;5015803;28;102422;-63
2022/11/10 11:21:33;;;;;;;102.77;96.53;;;;;;;13.66;69.96;102172.88;4976283;28;102302;-55
2022/11/10 11:24:25;;;;;;;103.00;95.93;;;;;;;13.65;68.74;102170.44;4964859;28;104100;-57
2022/11/10 11:26:58;;;;;;;100.35;94.38;;;;;;;13.64;68.06;102166.88;4968459;28;102345;-51
2022/11/10 11:29:34;;;;;;;92.40;86.20;;;;;;;13.73;69.14;102164.47;4964768;28;102421;-51
2022/11/10 11:32:18;;;;;;;91.22;85.65;;;;;;;13.81;69.64;102169.53;4966737;28;102563;-51
2022/11/10 11:34:59;;;;;;;99.07;92.97;;;;;;;13.83;69.74;102166.50;4967893;28;103737;-51
2022/11/10 11:37:34;;;;;;;93.88;88.00;;;;;;;13.87;69.59;102164.91;4967891;28;102283;-51
2022/11/10 11:40:16;;;;;;;100.75;94.57;;;;;;;13.85;70.07;102164.34;4971402;28;102167;-51
2022/11/10 11:42:54;;;;;;;98.90;92.95;;;;;;;13.89;69.59;102170.97;4956789;28;102719;-51
2022/11/10 11:45:28;;;;;;;92.07;86.35;;;;;;;13.86;70.11;102172.28;4957503;28;104051;-51
2022/11/10 11:48:18;;;;;;;96.45;90.65;;;;;;;13.87;70.07;102168.47;4968778;28;102222;-52
2022/11/10 11:50:51;;;;;;;100.85;94.43;;;;;;;13.88;70.30;102170.16;4964471;28;102233;-51
2022/11/10 11:53:35;;;;;;;102.22;96.18;;;;;;;13.90;70.38;102161.66;4969976;28;102345;-51
2022/11/10 11:56:18;;;;;;;99.03;93.32;;;;;;;13.91;70.29;102168.78;4968419;28;104011;-51
2022/11/10 11:58:52;;;;;;;99.28;93.50;;;;;;;13.91;70.50;102180.53;4974994;28;102316;-51
2022/11/10 12:01:40;;;;;;;98.13;92.22;;;;;;;13.91;70.63;102168.78;4968479;28;103121;-51
2022/11/10 12:04:29;;;;;;;95.72;90.10;;;;;;;13.92;70.64;102173.19;4973174;28;102691;-51
2022/11/10 12:07:10;;;;;;;93.45;87.90;;;;;;;13.92;70.52;102164.97;4955709;28;104025;-51
2022/11/10 12:09:43;;;;;;;99.35;93.70;;;;;;;13.93;70.64;102172.09;4958178;28;104358;-51
2022/11/10 12:12:28;;;;;;;99.93;94.07;;;;;;;13.90;70.74;102173.44;4967233;28;102388;-51
2022/11/10 12:15:01;;;;;;;99.22;93.30;;;;;;;13.92;70.77;102173.19;4968718;28;102609;-51
2022/11/10 12:17:38;;;;;;;102.75;96.68;;;;;;;13.93;70.99;102172.09;4977386;28;104147;-51
2022/11/10 12:20:18;;;;;;;92.63;87.25;;;;;;;13.94;70.84;102174.56;4960105;28;102227;-52
2022/11/10 12:22:55;;;;;;;101.95;96.20;;;;;;;13.95;71.00;102175.38;4955458;28;102240;-51
2022/11/10 12:25:29;;;;;;;98.22;92.57;;;;;;;13.95;71.08;102169.91;4957619;28;102812;-52
2022/11/10 12:28:11;;;;;;;95.50;89.80;;;;;;;13.95;70.93;102169.91;4956650;28;104132;-51
2022/11/10 12:30:40;;;;;;;99.28;93.18;;;;;;;13.94;70.93;102168.25;4957493;28;102386;-51
2022/11/10 12:33:15;;;;;;;98.75;93.20;;;;;;;13.94;71.18;102169.09;4962133;28;102108;-51
2022/11/10 12:35:45;;;;;;;99.85;94.07;;;;;;;13.95;71.10;102178.13;4976751;28;102353;-51
2022/11/10 12:38:16;;;;;;;94.25;88.90;;;;;;;13.95;71.15;102173.47;4975882;28;103908;-51
2022/11/10 12:40:47;;;;;;;96.68;91.13;;;;;;;13.94;71.43;102180.03;4976602;28;102306;-51
2022/11/10 12:43:24;;;;;;;94.80;89.38;;;;;;;13.95;71.24;102180.84;4975847;28;101997;-51
2022/11/10 12:45:55;;;;;;;94.05;88.57;;;;;;;13.97;71.34;102177.88;4977168;28;102168;-52
2022/11/10 12:48:24;;;;;;;96.25;90.72;;;;;;;13.94;70.68;102184.69;4972404;28;103915;-59
2022/11/10 12:50:59;;;;;;;100.40;94.75;;;;;;;13.90;71.26;102180.81;4973558;28;102578;-51
2022/11/10 12:53:30;;;;;;;90.50;84.65;;;;;;;13.81;70.57;102187.81;4974087;28;103893;-55
2022/11/10 12:56:00;;;;;;;99.75;93.45;;;;;;;13.87;71.39;102184.06;4976752;28;102383;-55
2022/11/10 12:58:27;;;;;;;98.78;92.80;;;;;;;13.89;71.21;102185.47;4977709;28;104221;-54
2022/11/10 13:00:56;;;;;;;102.10;96.32;;;;;;;13.90;71.13;102172.59;4993401;28;102727;-54
2022/11/10 13:03:26;;;;;;;94.35;88.70;;;;;;;13.90;71.08;102181.63;4956412;28;102231;-54
2022/11/10 14:24:28;;;;;;;134.80;127.15;;;;;;;13.85;71.58;102189.81;5011623;27;1402245;-54
2022/11/10 14:26:58;;;;;;;103.80;97.40;;;;;;;13.85;71.57;102181.59;5069162;27;102076;-54
2022/11/10 14:29:31;;;;;;;96.05;90.18;;;;;;;13.86;71.53;102179.69;5062828;27;104165;-54
2022/11/10 14:32:00;;;;;;;95.88;90.25;;;;;;;13.86;71.49;102179.69;5034194;27;102553;-54
2022/11/10 14:34:28;;;;;;;88.28;83.25;;;;;;;13.87;71.46;102176.69;5035202;27;102719;-54
2022/11/10 14:36:57;;;;;;;95.20;89.70;;;;;;;13.86;71.43;102175.03;5044079;27;102895;-54
2022/11/10 14:39:29;;;;;;;96.07;90.57;;;;;;;13.87;71.55;102173.94;5037228;27;104032;-54
2022/11/10 14:41:58;;;;;;;107.63;101.43;;;;;;;13.88;71.64;102174.75;5042288;27;102320;-54
2022/11/10 14:44:26;;;;;;;96.57;91.05;;;;;;;13.88;71.65;102175.63;5039072;27;102617;-54
2022/11/10 14:46:53;;;;;;;105.80;99.82;;;;;;;13.86;71.44;102177.78;5046308;27;102974;-53
2022/11/10 14:49:22;;;;;;;101.97;96.28;;;;;;;13.90;71.56;102183.56;5047424;27;104095;-53
2022/11/10 14:51:49;;;;;;;92.10;86.70;;;;;;;13.89;71.71;102182.72;5038896;27;102347;-54
2022/11/10 14:54:22;;;;;;;100.20;94.50;;;;;;;13.89;71.68;102188.22;5036519;27;102271;-54
2022/11/10 14:56:51;;;;;;;104.00;98.00;;;;;;;13.88;71.63;102185.72;5039969;27;104633;-54
2022/11/10 14:59:19;;;;;;;;;;;;;;;13.89;71.79;102187.38;5034837;27;104078;-54
2022/11/10 15:01:53;;;;;;;89.05;83.93;;;;;;;13.90;71.78;102189.03;5037033;27;102680;-54
2022/11/10 15:04:25;;;;;;;93.68;88.20;;;;;;;13.89;71.70;102190.94;5036215;27;102516;-54
2022/11/10 15:06:53;;;;;;;94.95;89.40;;;;;;;13.91;71.63;102193.41;5037540;27;102570;-54
2022/11/10 15:09:25;;;;;;;87.05;82.03;;;;;;;13.89;71.72;102190.13;5032851;27;103915;-54
2022/11/10 15:12:06;;;;;;;100.38;94.35;;;;;;;13.91;71.72;102194.22;5042648;27;102296;-53
2022/11/10 15:14:39;;;;;;;89.95;84.82;;;;;;;13.90;71.71;102199.97;5039686;27;102866;-53
2022/11/10 15:17:09;;;;;;;96.07;90.63;;;;;;;13.91;71.73;102193.41;5043083;27;102512;-53
2022/11/10 15:19:38;;;;;;;92.05;86.75;;;;;;;13.91;71.78;102196.97;5044795;27;103965;-54
2022/11/10 15:22:15;;;;;;;89.05;83.88;;;;;;;13.90;71.63;102194.50;5038433;27;102393;-53
2022/11/10 15:24:43;;;;;;;89.38;84.30;;;;;;;13.89;71.88;102198.34;5017180;27;102415;-54
2022/11/10 15:27:22;;;;;;;96.40;91.03;;;;;;;13.90;71.61;102199.97;5012986;28;102589;-54
2022/11/10 15:29:49;;;;;;;95.13;89.63;;;;;;;13.91;71.79;102202.44;4985697;28;108044;-54
2022/11/10 15:32:20;;;;;;;91.13;85.78;;;;;;;13.92;71.85;102206.03;4980911;28;102307;-54
2022/11/10 15:34:48;;;;;;;92.38;87.10;;;;;;;13.92;71.94;102206.03;4976431;28;103143;-54
2022/11/10 15:37:22;;;;;;;95.45;90.07;;;;;;;13.92;71.92;102206.03;4977887;28;102946;-54
2022/11/10 15:39:49;;;;;;;96.30;90.90;;;;;;;13.91;71.82;102209.84;4983769;28;104102;-54
2022/11/10 15:42:20;;;;;;;95.25;89.75;;;;;;;13.92;71.80;102206.03;4978033;28;102810;-54
2022/11/10 15:44:47;;;;;;;89.82;84.65;;;;;;;13.91;71.93;102201.63;4995572;28;102256;-54
2022/11/10 15:47:15;;;;;;;98.95;93.43;;;;;;;13.91;72.01;102204.34;4978577;28;102369;-54